HOURLY OBS INDEX

018

Western Agricultural

CEDUNA AMO

Site: 018012
Alt: 15.3m
2km E of CEDUNA


  Time     Wind        Temp  DP   Baro     Rain since   Rain past  Vis(m), Cloud(base in m), Weather
  local        km/h                         9am  last   hr   10m    
Thu 08:30    N  6/  6   5.2  4.9  1029.4    0.2   0.0   0.0   0.0     800|SC  30 
Thu 08:57    N  7/  7   6.4  6.3  1029.6    0.2   0.0  ----   0.0    1600|BR  30 BR1140 
Thu 09:00    N  6/  7   6.6  6.5  1029.6    0.2   0.0   0.0   0.0     900|BR  30 BR1140 
Thu 09:24    N  6/  7   8.4  8.3  1029.8    0.0   0.0  ----   0.0    1500|SC  30 
Thu 09:30    N  6/  7   8.8  8.7  1029.8    0.0   0.0   0.0   0.0   10000|SC  30 
Thu 09:38    N  6/  7   9.2  8.9  1029.9    0.0   0.0  ----   0.0   10000 
Thu 10:00    N  6/  7  10.0  9.7  1030.0    0.0   0.0   0.0   0.0   10000|BR1200 
Thu 10:30    N  4/  6  11.6 10.8  1030.0    0.0   0.0   0.0   0.0   10000|OC1140 
Thu 11:00    N  6/  7  13.7 11.2  1029.9    0.0   0.0   0.0   0.0   10000|OC1140 
Thu 11:30  NNE  6/  9  15.3 10.1  1029.6    0.0   0.0   0.0   0.0   10000|SC1140 
Thu 12:00    E  9/ 13  15.5  8.0  1029.2    0.0   0.0   0.0   0.0   10000 
Thu 12:30    E  7/ 17  16.3  9.5  1028.7    0.0   0.0   0.0   0.0   10000|SC1080 
Thu 13:00   SW 11/ 15  14.6  9.8  1028.5    0.0   0.0   0.0   0.0   10000|SC1020 
Thu 13:30   SW 13/ 19  15.7  9.4  1028.0    0.0   0.0   0.0   0.0   10000|SC1020 

CLEVE AERODROME

Site: 018116
Alt: 175.0m
125km SW of WHYALLA


  Time     Wind        Temp  DP   Baro     Rain since   Rain past  Vis(m), Cloud(base in m), Weather
  local        km/h                         9am  last   hr   10m    
Thu 08:30  NNE  6/  9  10.4----  1028.5    0.0   0.0   0.0   0.0   ----- 
Thu 09:00  NNE  6/  9  10.7----  1028.8    0.0   0.0   0.0   0.0   ----- 
Thu 09:30  NNE  6/  9  11.1----  1029.0    0.0   0.0   0.0   0.0   ----- 
Thu 10:00  ENE  2/  9  12.0 12.0  1029.2    0.0   0.0   0.0   0.0   ----- 
Thu 10:30    E  9/ 13  12.6 12.6  1029.1    0.0   0.0   0.0   0.0   ----- 
Thu 11:00    E 13/ 17  13.2 12.7  1028.9    0.0   0.0   0.0   0.0   ----- 
Thu 11:30    E 13/ 19  13.6 11.1  1028.6    0.0   0.0   0.0   0.0   ----- 
Thu 12:00    E 13/ 17  13.1  8.8  1028.4    0.0   0.0   0.0   0.0   ----- 
Thu 12:30  ESE 11/ 19  13.7  9.6  1028.1    0.0   0.0   0.0   0.0   ----- 
Thu 13:00    E  9/ 15  13.8  8.6  1027.7    0.0   0.0   0.0   0.0   ----- 
Thu 13:30  ESE 11/ 17  13.9  8.3  1027.3    0.0   0.0   0.0   0.0   ----- 

COFFIN BAY (POINT AVOID)

Site: 018230
Alt: 35.0m
48km WNW of PORT LINCOLN


  Time     Wind        Temp  DP   Baro     Rain since   Rain past  Vis(m), Cloud(base in m), Weather
  local        km/h                         9am  last   hr   10m    
Thu 08:30  ENE  9/ 11  10.4  9.9  1028.3    0.2   0.0   0.0   0.0   ----- 
Thu 09:00  ENE  6/  7  11.9 11.0  1028.6    0.2   0.0   0.0   0.0   ----- 
Thu 09:30  ENE  4/  4  13.6 10.6  1028.8    0.0   0.0   0.0   0.0   ----- 
Thu 10:00  NNE  4/  6  14.7  9.1  1028.9    0.0   0.0   0.0   0.0   ----- 
Thu 10:30    N  6/  7  15.1  9.5  1028.9    0.0   0.0   0.0   0.0   ----- 
Thu 11:00  NNW  6/  9  15.1  8.8  1028.8    0.0   0.0   0.0   0.0   ----- 
Thu 11:30   NW  7/  9  15.6  9.5  1028.7    0.0   0.0   0.0   0.0   ----- 
Thu 12:00   NW  9/ 11  15.9  8.6  1028.3    0.0   0.0   0.0   0.0   ----- 
Thu 12:30  WNW  7/ 11  14.9  7.9  1027.9    0.2   0.2   0.2   0.0   ----- 
Thu 13:00    W  7/ 11  16.2  9.2  1027.5    0.2   0.0   0.2   0.0   ----- 
Thu 13:30    W  7/  9  15.2  8.2  1027.2    0.2   0.0   0.0   0.0   ----- 

CULTANA (DEFENCE)

Site: 018229
Alt: 171 m
43km SW of PORT AUGUSTA


  Time     Wind        Temp  DP   Baro     Rain since   Rain past  Vis(m), Cloud(base in m), Weather
  local        km/h                         9am  last   hr   10m    
Thu 08:30  NNE  4/  4   8.8  8.2  ------    0.0   0.0   0.0   0.0   ----- 
Thu 09:00    C  0/  4  10.4  8.5  ------    0.0   0.0   0.0   0.0   ----- 
Thu 09:30    C  0/  0   9.6  8.0  ------    0.0   0.0   0.0   0.0   ----- 
Thu 10:00    N  4/  7  12.0  7.7  ------    0.0   0.0   0.0   0.0   ----- 
Thu 10:30    N  6/  9  12.6  4.8  ------    0.0   0.0   0.0   0.0   ----- 
Thu 11:00    N  4/  7  13.6  2.5  ------    0.0   0.0   0.0   0.0   ----- 
Thu 11:30   NW  4/  7  14.1  2.4  ------    0.0   0.0   0.0   0.0   ----- 
Thu 12:00  WSW  4/  7  14.0  2.9  ------    0.0   0.0   0.0   0.0   ----- 
Thu 12:30   SW  4/  9  14.2  3.4  ------    0.0   0.0   0.0   0.0   ----- 
Thu 13:00   NW  2/  6  14.8  2.7  ------    0.0   0.0   0.0   0.0   ----- 
Thu 13:30  SSW  4/  7  14.8  2.4  ------    0.0   0.0   0.0   0.0   ----- 

CUMMINS AERO

Site: 018217
Alt: 60.1m
54km NNW of PORT LINCOLN


  Time     Wind        Temp  DP   Baro     Rain since   Rain past  Vis(m), Cloud(base in m), Weather
  local        km/h                         9am  last   hr   10m    
Thu 08:30  ESE  2/  6   5.5  5.5  1029.0    0.6   0.0   0.0   0.0   ----- 
Thu 09:00    C  0/  4   7.7  7.7  1029.2    0.6   0.0   0.0   0.0   ----- 
Thu 09:30    C  0/  0   9.8  9.8  1029.3    0.0   0.0   0.0   0.0   ----- 
Thu 10:00    C  0/  0  11.3 11.3  1029.4    0.0   0.0   0.0   0.0   ----- 
Thu 10:30  SSW  9/ 11  12.0 12.0  1029.5    0.0   0.0   0.0   0.0   ----- 
Thu 11:00    C  0/  0  12.3 12.3  1029.5    0.0   0.0   0.0   0.0   ----- 
Thu 11:30    C  0/  0  13.0 13.0  1029.2    0.0   0.0   0.0   0.0   ----- 
Thu 12:00   NW  4/  9  14.0 13.7  1028.7    0.0   0.0   0.0   0.0   ----- 
Thu 12:30    N  7/ 13  15.0  9.8  1028.3    0.0   0.0   0.0   0.0   ----- 
Thu 13:00    N  6/ 11  15.7  9.8  1027.7    0.0   0.0   0.0   0.0   ----- 
Thu 13:30  ENE  7/ 11  16.0 10.5  1027.5    0.0   0.0   0.0   0.0   ----- 

MINNIPA PIRSA

Site: 018195
Alt: 165.0m
160km ESE of CEDUNA


  Time     Wind        Temp  DP   Baro     Rain since   Rain past  Vis(m), Cloud(base in m), Weather
  local        km/h                         9am  last   hr   10m    
Thu 08:30  NNE  9/ 13   5.2  4.5  1029.4    1.8   0.0   0.0   0.0   ----- 
Thu 09:00  ENE 15/ 20   6.3  5.6  1029.6    1.8   0.0   0.0   0.0   ----- 
Thu 09:30  NNE  7/  9   7.5  6.8  1030.1    0.0   0.0   0.0   0.0   ----- 
Thu 10:00    C  0/  4   7.9  7.0  1030.3    0.0   0.0   0.0   0.0   ----- 
Thu 10:30    C  0/  0   8.8  7.9  1030.2    0.0   0.0   0.0   0.0   ----- 
Thu 11:00  NNW  6/  7  10.2  9.3  1030.1    0.0   0.0   0.0   0.0   ----- 
Thu 11:30    W  4/  7  10.9 10.0  1029.9    0.0   0.0   0.0   0.0   ----- 
Thu 12:00  WSW  2/  7  11.9 10.6  1029.5    0.0   0.0   0.0   0.0   ----- 
Thu 12:30   SW  7/ 11  12.2  9.2  1029.0    0.0   0.0   0.0   0.0   ----- 
Thu 13:00  SSE 11/ 17  12.6  9.1  1028.6    0.0   0.0   0.0   0.0   ----- 
Thu 13:30   SE 11/ 15  13.2  9.5  1028.3    0.0   0.0   0.0   0.0   ----- 

NEPTUNE ISLAND

Site: 018115
Alt: 32.0m
72km SSE of PORT LINCOLN


  Time     Wind        Temp  DP   Baro     Rain since   Rain past  Vis(m), Cloud(base in m), Weather
  local        km/h                         9am  last   hr   10m    
Thu 08:30  ESE  7/  9  13.1----  1028.5   ----  ----  ----   0.0   ----- 
Thu 09:00    E  7/ 11  14.7----  1028.6   ----  ----  ----   0.0   ----- 
Thu 09:30    E  9/ 11  15.1----  1028.7    0.0  ----  ----   0.0   ----- 
Thu 10:00    E  9/ 13  15.2----  1028.9    0.0   0.0  ----   0.0   ----- 
Thu 10:30    E  7/ 11  16.0----  1028.9    0.0   0.0   0.0   0.0   ----- 
Thu 11:00   NE  9/ 13  15.6----  1028.8    0.0   0.0   0.0   0.0   ----- 
Thu 11:30  ENE  7/ 11  16.0----  1028.6    0.0   0.0   0.0   0.0   ----- 
Thu 12:00    E  9/ 11  15.8----  1028.4    0.0   0.0   0.0   0.0   ----- 
Thu 12:30  ENE  7/ 11  16.6----  1028.0    0.0   0.0   0.0   0.0   ----- 
Thu 13:00  ENE  9/ 13  16.1----  1027.7    0.0   0.0   0.0   0.0   ----- 
Thu 13:30   NE  7/  9  15.2----  1027.3    0.0   0.0   0.0   0.0   ----- 

NORTH SHIELDS (PORT LINCOLN AWS)

Site: 018192
Alt: 8.5m
14km N of PORT LINCOLN


  Time     Wind        Temp  DP   Baro     Rain since   Rain past  Vis(m), Cloud(base in m), Weather
  local        km/h                         9am  last   hr   10m    
Thu 08:30   NW  9/ 11   8.7  8.3  1028.9    1.0   0.0   0.0   0.0   10000 
Thu 09:00   NW  7/  7  11.1 10.6  1029.2    1.0   0.0   0.0   0.0   10000 
Thu 09:30   NW  4/  7  12.6 11.5  1029.2    0.0   0.0   0.0   0.0   10000 
Thu 10:00   NW  2/  9  14.0 11.9  1029.3    0.0   0.0   0.0   0.0   10000 
Thu 10:30  NNE  2/  7  14.6 11.2  1029.4    0.0   0.0   0.0   0.0   10000 
Thu 11:00  NNW  4/  9  15.4 11.6  1029.3    0.0   0.0   0.0   0.0   10000|SC 420 BR1080 BR1380 
Thu 11:20    N  6/ 11  15.1 10.7  1029.2    0.0   0.0  ----   0.0   10000|BR 480 BR 870 BR1020 
Thu 11:30  NNE  6/ 11  14.5 10.1  1029.1    0.0   0.0   0.0   0.0   10000|SC 540 BR 690 BR 870 
Thu 11:33    N  4/  9  14.7 10.7  1029.0    0.0   0.0  ----   0.0   10000|SC 540 BR 690 BR 870 
Thu 12:00    C  0/  6  14.6 10.4  1028.7    0.0   0.0   0.0   0.0   10000|SC 660 SC1560 
Thu 12:30   NE  7/ 11  14.4  9.6  1028.3    0.0   0.0   0.0   0.0   10000 
Thu 13:00  ENE  9/ 11  14.5 10.7  1028.0    0.0   0.0   0.0   0.0   10000|SC1980 
Thu 13:30   NE  9/ 11  14.3  9.9  1027.7    0.0   0.0   0.0   0.0   10000 

NULLARBOR

Site: 018106
Alt: 64.0m
193km E of EUCLA (WA)


  Time     Wind        Temp  DP   Baro     Rain since   Rain past  Vis(m), Cloud(base in m), Weather
  local        km/h                         9am  last   hr   10m    
Thu 08:30    N 11/ 13   5.3  5.3  1029.8    0.0   0.0   0.0   0.0   10000 
Thu 09:00    N 11/ 15   7.6----  1029.9    0.0   0.0   0.0   0.0   10000 
Thu 09:30  NNW 11/ 17   9.4----  1030.2    0.0   0.0   0.0   0.0   10000 
Thu 10:00    N 11/ 15  11.8 11.8  1030.3    0.0   0.0   0.0   0.0   10000 
Thu 10:30    N 13/ 17  13.7 12.4  1030.4    0.0   0.0   0.0   0.0   10000 
Thu 11:00    N 17/ 20  14.8 10.8  1030.2    0.0   0.0   0.0   0.0   10000 
Thu 11:30  NNW 15/ 22  15.1 10.3  1030.0    0.0   0.0   0.0   0.0   10000 
Thu 12:00    N 15/ 20  15.9 10.2  1029.7    0.0   0.0   0.0   0.0   10000 
Thu 12:30    N  9/ 24  16.7 11.0  1029.2    0.0   0.0   0.0   0.0   10000 
Thu 13:00    N 11/ 17  17.1 10.2  1028.8    0.0   0.0   0.0   0.0   10000 
Thu 13:30  NNW  7/ 13  16.8  9.5  1028.3    0.0   0.0   0.0   0.0   10000 

PORT AUGUSTA AERO

Site: 018201
Alt: 14.0m
6km WSW of PORT AUGUSTA


  Time     Wind        Temp  DP   Baro     Rain since   Rain past  Vis(m), Cloud(base in m), Weather
  local        km/h                         9am  last   hr   10m    
Thu 08:30    C  0/  0   2.5  1.3  1029.3    0.2   0.0   0.0   0.0   10000 
Thu 09:00    C  0/  0   5.3  3.0  1029.5    0.2   0.0   0.0   0.0   10000 
Thu 09:30    N  6/  7   8.2  3.5  1029.7    0.0   0.0   0.0   0.0   10000 
Thu 10:00  NNE  6/  7  10.5  3.3  1029.8    0.0   0.0   0.0   0.0   10000 
Thu 10:30   NW  6/  7  12.5  2.1  1029.6    0.0   0.0   0.0   0.0   10000 
Thu 11:00  WNW  6/  9  13.8  1.5  1029.3    0.0   0.0   0.0   0.0   10000 
Thu 11:30    W  4/  9  14.7  0.9  1029.0    0.0   0.0   0.0   0.0   10000 
Thu 12:00  NNW  6/ 13  15.8  0.8  1028.6    0.0   0.0   0.0   0.0   10000 
Thu 12:30    W  9/ 13  15.4  0.4  1028.2    0.0   0.0   0.0   0.0   10000 
Thu 13:00  SSW  6/  9  16.2  0.7  1027.7    0.0   0.0   0.0   0.0   10000 
Thu 13:30  ESE  6/ 11  15.9 -0.3  1027.3    0.0   0.0   0.0   0.0   10000 

THEVENARD WIND

Site: 018200
Alt: 8.5m
7km SSW of CEDUNA


  Time     Wind        Temp  DP   Baro     Rain since   Rain past  Vis(m), Cloud(base in m), Weather
  local        km/h                         9am  last   hr   10m    
Thu 08:30  NNE  6/  9 --------  ------   ----  ----  ----  ----   ----- 
Thu 09:00    N  9/ 11 --------  ------   ----  ----  ----  ----   ----- 
Thu 09:30    N  7/  9 --------  ------   ----  ----  ----  ----   ----- 
Thu 10:00    N  7/  9 --------  ------   ----  ----  ----  ----   ----- 
Thu 10:30    N  7/  9 --------  ------   ----  ----  ----  ----   ----- 
Thu 11:00    N  6/  7 --------  ------   ----  ----  ----  ----   ----- 
Thu 11:30    N  6/  6 --------  ------   ----  ----  ----  ----   ----- 
Thu 12:00  WNW  2/  4 --------  ------   ----  ----  ----  ----   ----- 
Thu 12:30  WSW  4/  6 --------  ------   ----  ----  ----  ----   ----- 
Thu 13:00  SSW  2/  4 --------  ------   ----  ----  ----  ----   ----- 
Thu 13:30    S  7/  7 --------  ------   ----  ----  ----  ----   ----- 

WHYALLA AERO

Site: 018120
Alt: 9.3m
5km WSW of WHYALLA


  Time     Wind        Temp  DP   Baro     Rain since   Rain past  Vis(m), Cloud(base in m), Weather
  local        km/h                         9am  last   hr   10m    
Thu 08:30   NW  9/ 15   6.6  6.0  1029.1    0.0   0.0   0.0   0.0   10000|SC 240 
Thu 09:00   NW  6/  9   8.2  6.8  1029.2    0.0   0.0   0.0   0.0   10000|BR 180 
Thu 09:01   NW  6/  7   8.2  6.8  1029.2    0.0   0.0  ----   0.0   10000|BR 180 
Thu 09:30   NW  9/ 11  10.3  8.2  1029.5    0.0   0.0   0.0   0.0   10000|OC 180 
Thu 10:00  WNW  6/  9  11.1  9.4  1029.6    0.0   0.0   0.0   0.0   10000|BR 150 
Thu 10:20   NW  4/ 11  11.5  9.2  1029.6    0.0   0.0  ----   0.0   10000|SC 180 
Thu 10:30  WNW  7/ 11  12.0  9.6  1029.5    0.0   0.0   0.0   0.0   10000|SC 180 
Thu 11:00    N  6/  9  12.9  9.7  1029.4    0.0   0.0   0.0   0.0   10000|SC 240 
Thu 11:30    C  0/  0  13.9 10.1  1029.1    0.0   0.0   0.0   0.0   10000 
Thu 12:00  NNW  7/ 11  14.7  9.5  1028.7    0.0   0.0   0.0   0.0   10000 
Thu 12:30    W  4/  9  14.9  9.7  1028.2    0.0   0.0   0.0   0.0   10000|SC 630 
Thu 13:00   SE  9/ 15  14.3  9.7  1027.7    0.0   0.0   0.0   0.0   10000|SC 630 
Thu 13:30  ESE 11/ 17  14.9  9.9  1027.3    0.0   0.0   0.0   0.0   10000 

WUDINNA AERO

Site: 018083
Alt: 86.4m
191km N of PORT LINCOLN


  Time     Wind        Temp  DP   Baro     Rain since   Rain past  Vis(m), Cloud(base in m), Weather
  local        km/h                         9am  last   hr   10m    
Thu 08:30    C  0/  7   6.7  6.0  1029.3    1.2   0.2   0.2   0.0   ----- 
Thu 09:00  NNW  6/  7   8.1  7.3  1029.5    1.2   0.0   0.2   0.0   ----- 
Thu 09:30  NNW  7/  9   8.8  8.0  1029.5    0.0   0.0   0.0   0.0   ----- 
Thu 10:00  NNW  7/  9   8.8  8.0  1029.9    0.0   0.0   0.0   0.0   ----- 
Thu 10:30    W 11/ 13   9.9  9.1  1029.8    0.0   0.0   0.0   0.0   ----- 
Thu 11:00    W  9/  9  10.4  9.6  1029.6    0.0   0.0   0.0   0.0   ----- 
Thu 11:30    S  9/ 13  11.0 10.1  1029.4    0.0   0.0   0.0   0.0   ----- 
Thu 12:00    S  7/ 11  11.1 10.2  1029.2    0.0   0.0   0.0   0.0   ----- 
Thu 12:30    S  4/  9  11.4 10.1  1028.7    0.0   0.0   0.0   0.0   ----- 
Thu 13:00    S  7/ 11  12.0  9.9  1028.4    0.0   0.0   0.0   0.0   ----- 
Thu 13:30    S  7/  9  13.2 10.6  1028.0    0.0   0.0   0.0   0.0   -----